Time;durP1;ratioP1;P1;durP2;ratioP2;P2;SDS_P1;SDS_P2;PMS_P1;PMS_P2;Temp;Humidity;BMP_temperature;BMP_pressure;BME280_temperature;BME280_humidity;BME280_pressure;Samples;Min_cycle;Max_cycle;Signal;HPM_P1;HPM_P2
2022/07/23 00:02:17;;;;;;;2.00;1.10;;;;;;;24.02;48.57;101801.44;5094018;28;20032;-65
2022/07/23 00:04:42;;;;;;;2.80;1.50;;;;;;;24.00;48.73;101811.41;5093011;28;20028;-65
2022/07/23 00:07:07;;;;;;;3.30;1.50;;;;;;;24.01;48.95;101813.09;5094300;28;20108;-65
2022/07/23 00:09:33;;;;;;;2.75;1.50;;;;;;;24.01;48.65;101813.09;5093648;28;20271;-64
2022/07/23 00:11:58;;;;;;;3.15;1.67;;;;;;;23.99;48.83;101818.56;5093120;28;20101;-65
2022/07/23 00:14:24;;;;;;;2.70;1.30;;;;;;;23.98;48.98;101803.56;5093721;28;20130;-65
2022/07/23 00:16:49;;;;;;;3.13;1.50;;;;;;;23.99;48.89;101802.59;5093532;28;20300;-65
2022/07/23 00:19:14;;;;;;;3.50;1.50;;;;;;;23.97;48.80;101798.38;5093219;28;20082;-65
2022/07/23 00:21:40;;;;;;;3.53;1.70;;;;;;;23.96;48.85;101802.00;5093716;28;20478;-65
2022/07/23 00:24:11;;;;;;;2.05;1.17;;;;;;;23.96;48.51;101807.31;5094130;28;20281;-66
2022/07/23 00:26:36;;;;;;;3.65;1.50;;;;;;;23.94;48.81;101799.50;5093050;28;20058;-65
2022/07/23 00:29:01;;;;;;;3.47;1.50;;;;;;;23.95;48.91;101803.00;5093593;28;20100;-65
2022/07/23 00:31:27;;;;;;;4.47;1.50;;;;;;;23.93;48.95;101797.81;5093603;28;20264;-66
2022/07/23 00:33:56;;;;;;;3.20;1.30;;;;;;;23.93;48.63;101804.97;5092518;28;20285;-65
2022/07/23 00:36:23;;;;;;;2.92;1.40;;;;;;;23.91;49.04;101799.78;5092659;28;20024;-65
2022/07/23 00:38:48;;;;;;;3.83;1.40;;;;;;;23.92;48.77;101797.94;5092343;28;20051;-65
2022/07/23 00:41:13;;;;;;;3.28;1.45;;;;;;;23.92;48.74;101798.78;5092662;28;20446;-65
2022/07/23 00:43:42;;;;;;;3.95;1.60;;;;;;;23.92;48.64;101789.97;5093021;28;20028;-65
2022/07/23 00:46:10;;;;;;;2.97;1.48;;;;;;;23.90;48.97;101790.94;5092462;28;20024;-65
2022/07/23 00:48:36;;;;;;;3.03;1.42;;;;;;;23.90;48.59;101788.28;5093068;28;20029;-65
2022/07/23 00:51:01;;;;;;;2.92;1.52;;;;;;;23.90;48.57;101793.59;5093194;28;20024;-65
2022/07/23 00:53:27;;;;;;;3.40;1.30;;;;;;;23.89;48.69;101794.59;5092236;28;20039;-65
2022/07/23 00:55:53;;;;;;;3.80;1.70;;;;;;;23.88;48.57;101789.41;5092760;28;20024;-65
2022/07/23 00:58:19;;;;;;;4.78;1.25;;;;;;;23.87;48.34;101793.88;5092939;28;20031;-65
2022/07/23 01:00:44;;;;;;;2.97;1.20;;;;;;;23.87;48.56;101787.72;5092143;28;20028;-65
2022/07/23 01:03:10;;;;;;;3.40;1.48;;;;;;;23.85;48.81;101792.34;5093084;28;20491;-65
2022/07/23 01:05:35;;;;;;;2.25;1.13;;;;;;;23.84;48.84;101794.16;5092887;28;20024;-65
2022/07/23 01:08:01;;;;;;;3.05;1.40;;;;;;;23.84;48.52;101796.00;5092270;28;20149;-65
2022/07/23 01:10:32;;;;;;;3.25;1.48;;;;;;;23.83;48.40;101788.94;5092893;28;20020;-65
2022/07/23 01:13:04;;;;;;;3.13;1.33;;;;;;;23.80;48.65;101786.56;5092680;28;20757;-65
2022/07/23 01:15:30;;;;;;;2.47;1.20;;;;;;;23.82;48.35;101793.44;5091692;28;20464;-65
2022/07/23 01:17:55;;;;;;;2.60;1.25;;;;;;;23.81;48.49;101782.94;5092879;28;20463;-65
2022/07/23 01:20:21;;;;;;;2.72;1.40;;;;;;;23.80;48.49;101775.91;5092854;28;20073;-65
2022/07/23 01:22:47;;;;;;;2.80;1.38;;;;;;;23.77;48.88;101774.38;5091787;28;20028;-65
2022/07/23 01:25:13;;;;;;;3.08;1.50;;;;;;;23.78;48.65;101785.88;5092770;28;20020;-65
2022/07/23 01:27:38;;;;;;;3.88;1.67;;;;;;;23.76;48.41;101783.34;5092409;28;20364;-65
2022/07/23 01:30:04;;;;;;;2.65;1.40;;;;;;;23.75;48.68;101792.31;5092164;28;20021;-65
2022/07/23 01:32:30;;;;;;;3.50;1.60;;;;;;;23.75;48.90;101792.31;5092142;28;20024;-65
2022/07/23 01:34:58;;;;;;;3.40;1.42;;;;;;;23.72;48.85;101782.78;5092750;28;20035;-65
2022/07/23 01:37:23;;;;;;;2.47;1.23;;;;;;;23.71;48.57;101783.75;5091910;28;20121;-65
2022/07/23 01:39:48;;;;;;;3.65;1.45;;;;;;;23.69;48.52;101774.25;5092345;28;20474;-65
2022/07/23 01:42:14;;;;;;;2.78;1.40;;;;;;;23.72;48.36;101779.28;5092428;28;20038;-65
2022/07/23 01:44:39;;;;;;;3.15;1.42;;;;;;;23.69;48.42;101782.22;5091633;28;20036;-65
2022/07/23 01:47:04;;;;;;;3.38;1.60;;;;;;;23.70;48.84;101775.91;5093472;28;20111;-65
2022/07/23 01:49:32;;;;;;;2.97;1.40;;;;;;;23.69;48.44;101776.91;5095647;28;20100;-65
2022/07/23 01:52:00;;;;;;;2.70;1.40;;;;;;;23.68;48.87;101772.56;5095583;28;20081;-65
2022/07/23 01:54:27;;;;;;;2.60;1.08;;;;;;;23.69;48.54;101779.56;5096517;28;20024;-65
2022/07/23 01:56:52;;;;;;;2.95;1.20;;;;;;;23.69;48.49;101779.56;5095327;28;20127;-65
2022/07/23 01:59:17;;;;;;;3.25;1.33;;;;;;;23.67;48.46;101774.38;5096584;28;20063;-65
2022/07/23 02:01:43;;;;;;;3.10;1.33;;;;;;;23.66;48.88;101770.03;5096162;28;20096;-65
2022/07/23 02:04:11;;;;;;;2.80;1.37;;;;;;;23.66;48.47;101771.88;5095679;28;20276;-65
2022/07/23 02:06:36;;;;;;;4.05;1.60;;;;;;;23.67;48.45;101770.88;5096005;28;20375;-65
2022/07/23 02:09:01;;;;;;;3.07;1.40;;;;;;;23.65;48.72;101765.69;5096192;28;20233;-65
2022/07/23 02:11:27;;;;;;;2.85;1.42;;;;;;;23.64;48.40;101769.34;5095423;28;20268;-65
2022/07/23 02:13:52;;;;;;;3.13;1.48;;;;;;;23.65;48.40;101767.50;5095540;28;20483;-65
2022/07/23 02:16:17;;;;;;;3.00;1.47;;;;;;;23.64;48.31;101765.81;5096288;28;20028;-65
2022/07/23 02:18:46;;;;;;;2.95;1.40;;;;;;;23.63;48.30;101767.66;5095295;28;20795;-65
2022/07/23 02:21:12;;;;;;;3.10;1.40;;;;;;;23.62;48.43;101762.47;5096094;28;20059;-65
2022/07/23 02:23:37;;;;;;;3.47;1.52;;;;;;;23.63;48.26;101766.81;5095584;28;20051;-65
2022/07/23 02:26:05;;;;;;;3.00;1.40;;;;;;;23.63;48.12;101765.00;5094973;28;20119;-65
2022/07/23 02:28:30;;;;;;;2.67;1.42;;;;;;;23.62;48.27;101765.97;5095752;28;20107;-65
2022/07/23 02:30:55;;;;;;;3.10;1.50;;;;;;;23.63;48.16;101762.31;5095954;28;20074;-65
2022/07/23 02:33:21;;;;;;;3.47;1.50;;;;;;;23.63;48.39;101758.84;5095045;28;20281;-66
2022/07/23 02:35:46;;;;;;;3.27;1.50;;;;;;;23.62;48.49;101754.47;5095440;28;20271;-65
2022/07/23 02:38:12;;;;;;;2.85;1.40;;;;;;;23.60;48.34;101749.31;5095593;28;20364;-65
2022/07/23 02:40:37;;;;;;;2.78;1.40;;;;;;;23.59;47.96;101752.97;5094511;28;20403;-65
2022/07/23 02:43:02;;;;;;;3.47;1.50;;;;;;;23.59;48.43;101763.59;5095833;28;20448;-65
2022/07/23 02:45:28;;;;;;;2.58;1.30;;;;;;;23.59;48.25;101760.09;5095439;28;20379;-65
2022/07/23 02:47:53;;;;;;;2.63;1.38;;;;;;;23.58;48.15;101766.41;5094902;28;20023;-65
2022/07/23 02:50:19;;;;;;;3.00;1.20;;;;;;;23.58;47.98;101764.56;5095497;28;20420;-65
2022/07/23 02:52:44;;;;;;;2.10;1.20;;;;;;;23.58;48.12;101769.91;5094249;28;20537;-65
2022/07/23 02:55:10;;;;;;;3.17;1.50;;;;;;;23.57;48.38;101775.34;5095157;28;20027;-65
2022/07/23 02:57:36;;;;;;;2.58;1.52;;;;;;;23.56;48.19;101771.88;5095181;28;20379;-64
2022/07/23 03:00:01;;;;;;;3.33;1.58;;;;;;;23.55;48.14;101773.66;5093784;28;20445;-64
2022/07/23 03:02:27;;;;;;;3.38;1.60;;;;;;;23.55;48.13;101773.66;5095169;28;20027;-65
2022/07/23 03:04:52;;;;;;;2.63;1.50;;;;;;;23.53;48.20;101772.13;5094906;28;20024;-64
2022/07/23 03:07:17;;;;;;;2.88;1.38;;;;;;;23.54;48.34;101772.00;5094376;28;20539;-65
2022/07/23 03:09:45;;;;;;;2.78;1.30;;;;;;;23.52;48.32;101771.28;5094607;28;20055;-65
2022/07/23 03:12:11;;;;;;;2.88;1.27;;;;;;;23.51;48.42;101777.59;5095011;28;20024;-64
2022/07/23 03:14:36;;;;;;;3.03;1.50;;;;;;;23.51;48.33;101772.28;5093764;28;20095;-65
2022/07/23 03:17:01;;;;;;;2.75;1.30;;;;;;;23.50;48.37;101770.59;5094896;28;20057;-64
2022/07/23 03:19:26;;;;;;;2.83;1.30;;;;;;;23.51;48.28;101774.94;5094922;28;20026;-64
2022/07/23 03:21:55;;;;;;;2.80;1.30;;;;;;;23.49;48.02;101779.53;5093853;28;20080;-65
2022/07/23 03:24:20;;;;;;;3.63;1.67;;;;;;;23.50;48.30;101780.38;5094666;28;20320;-64
2022/07/23 03:26:45;;;;;;;3.10;1.55;;;;;;;23.49;47.79;101781.34;5094565;28;20495;-66
2022/07/23 03:29:11;;;;;;;3.05;1.50;;;;;;;23.50;48.09;101780.38;5094002;28;20376;-67
2022/07/23 03:31:36;;;;;;;3.38;1.63;;;;;;;23.49;47.75;101790.16;5094250;28;20048;-64
2022/07/23 03:34:04;;;;;;;3.45;1.42;;;;;;;23.48;48.12;101787.66;5094532;28;20105;-66
2022/07/23 03:36:29;;;;;;;3.25;1.60;;;;;;;23.46;47.81;101789.59;5093789;28;20460;-64
2022/07/23 03:38:58;;;;;;;3.17;1.50;;;;;;;23.47;48.03;101786.81;5094433;28;20069;-64
2022/07/23 03:41:23;;;;;;;2.83;1.60;;;;;;;23.46;48.21;101792.28;5093685;28;20334;-64
2022/07/23 03:43:48;;;;;;;3.85;1.90;;;;;;;23.47;48.18;101788.66;5093506;28;20493;-65
2022/07/23 03:46:14;;;;;;;2.73;1.53;;;;;;;23.46;48.06;101792.28;5094388;28;20583;-64
2022/07/23 03:48:39;;;;;;;2.67;1.33;;;;;;;23.45;48.10;101790.56;5093974;28;20287;-64
2022/07/23 03:51:04;;;;;;;3.30;1.60;;;;;;;23.44;47.47;101787.09;5093500;28;20059;-64
2022/07/23 03:53:30;;;;;;;3.45;1.80;;;;;;;23.45;48.14;101786.13;5093671;28;20308;-64
2022/07/23 03:56:04;;;;;;;3.22;1.70;;;;;;;23.44;47.98;101791.56;5094268;28;20046;-65
2022/07/23 03:58:30;;;;;;;2.63;1.55;;;;;;;23.44;47.82;101791.56;5093920;28;20038;-64
2022/07/23 04:00:55;;;;;;;3.40;1.87;;;;;;;23.44;47.85;101788.91;5094304;28;20475;-64
2022/07/23 04:03:20;;;;;;;3.40;1.57;;;;;;;23.41;47.74;101790.03;5093571;28;20264;-64
2022/07/23 04:05:45;;;;;;;4.40;1.95;;;;;;;23.41;47.67;101789.19;5093874;28;20280;-64
2022/07/23 04:08:11;;;;;;;4.17;1.90;;;;;;;23.42;47.88;101796.19;5093840;28;20028;-65
2022/07/23 04:10:36;;;;;;;2.50;1.43;;;;;;;23.41;48.04;101790.03;5092826;28;20294;-65
2022/07/23 04:13:01;;;;;;;3.65;1.50;;;;;;;23.41;47.53;101792.69;5093758;28;20296;-66
2022/07/23 04:15:29;;;;;;;3.83;1.75;;;;;;;23.40;47.95;101798.13;5093787;28;20024;-67
2022/07/23 04:17:55;;;;;;;3.22;1.75;;;;;;;23.39;47.51;101794.66;5093109;28;20056;-66
2022/07/23 04:20:20;;;;;;;4.07;1.90;;;;;;;23.36;47.69;101795.75;5093633;28;20104;-66
2022/07/23 04:22:45;;;;;;;3.88;1.73;;;;;;;23.38;48.01;101797.44;5093333;28;20770;-67
2022/07/23 04:25:10;;;;;;;3.13;1.70;;;;;;;23.38;47.64;101803.59;5093109;28;20024;-64
2022/07/23 04:27:36;;;;;;;3.75;1.80;;;;;;;23.37;48.03;101812.56;5093187;28;20464;-67
2022/07/23 04:30:01;;;;;;;3.33;1.80;;;;;;;23.36;47.97;101809.03;5093646;28;20028;-66
2022/07/23 04:32:26;;;;;;;3.95;1.65;;;;;;;23.36;47.80;101817.03;5091268;28;20767;-64
2022/07/23 04:34:51;;;;;;;4.47;2.00;;;;;;;23.35;47.73;101818.03;5093209;28;20028;-66
2022/07/23 04:37:17;;;;;;;4.97;1.90;;;;;;;23.35;47.54;101815.38;5093417;28;20040;-66
2022/07/23 04:39:42;;;;;;;5.22;1.77;;;;;;;23.34;47.78;101816.31;5092217;28;20475;-66
2022/07/23 04:42:07;;;;;;;3.30;1.70;;;;;;;23.35;48.10;101815.38;5093579;28;20040;-66
2022/07/23 04:44:33;;;;;;;3.77;2.00;;;;;;;23.35;47.71;101817.16;5092998;28;20280;-66
2022/07/23 04:46:58;;;;;;;3.70;1.67;;;;;;;23.35;47.75;101817.16;5092647;28;20276;-66
2022/07/23 04:49:23;;;;;;;3.60;1.80;;;;;;;23.35;47.81;101830.47;5093152;28;20059;-66
2022/07/23 04:51:48;;;;;;;4.43;2.07;;;;;;;23.36;48.10;101837.47;5092963;28;20264;-66
2022/07/23 04:54:13;;;;;;;3.00;1.70;;;;;;;23.34;47.79;101829.63;5092353;28;20292;-66
2022/07/23 04:56:39;;;;;;;4.03;1.73;;;;;;;23.34;48.07;101834.94;5092860;28;20024;-66
2022/07/23 04:59:04;;;;;;;3.60;1.87;;;;;;;23.35;48.11;101839.31;5093065;28;20329;-66
2022/07/23 05:01:29;;;;;;;4.30;1.77;;;;;;;23.36;47.71;101832.97;5091952;28;20264;-66
2022/07/23 05:03:55;;;;;;;3.70;1.87;;;;;;;23.37;47.78;101833.84;5092979;28;20541;-66
2022/07/23 05:06:20;;;;;;;2.90;1.60;;;;;;;23.36;48.11;101835.63;5091941;28;20265;-65
2022/07/23 05:08:45;;;;;;;3.33;1.85;;;;;;;23.36;47.91;101832.97;5092402;28;20345;-66
2022/07/23 05:11:10;;;;;;;3.93;1.93;;;;;;;23.38;47.72;101838.16;5092909;28;20019;-66
2022/07/23 05:13:36;;;;;;;3.85;1.90;;;;;;;23.39;48.04;101831.06;5091235;28;20644;-67
2022/07/23 05:16:01;;;;;;;4.70;1.90;;;;;;;23.38;47.80;101832.00;5092949;28;20028;-66
2022/07/23 05:18:26;;;;;;;3.17;1.77;;;;;;;23.39;47.74;101836.38;5092787;28;20107;-66
2022/07/23 05:20:51;;;;;;;3.30;1.80;;;;;;;23.38;48.04;101834.69;5091656;28;20295;-66
2022/07/23 05:23:16;;;;;;;3.80;2.13;;;;;;;23.38;47.70;101835.50;5092520;28;20747;-66
2022/07/23 05:25:42;;;;;;;3.70;1.90;;;;;;;23.38;48.02;101846.16;5092578;28;20734;-66
2022/07/23 05:28:07;;;;;;;3.25;1.70;;;;;;;23.38;47.82;101837.34;5092147;28;20277;-66
2022/07/23 05:30:32;;;;;;;3.78;1.90;;;;;;;23.38;47.72;101848.81;5092467;28;20028;-66
2022/07/23 05:32:58;;;;;;;4.53;2.00;;;;;;;23.39;47.82;101850.50;5092640;28;20372;-66
2022/07/23 05:35:23;;;;;;;3.22;1.80;;;;;;;23.41;47.70;101845.03;5091728;28;20314;-66
2022/07/23 05:37:48;;;;;;;3.28;1.85;;;;;;;23.43;48.24;101848.41;5092552;28;20024;-66
2022/07/23 05:40:14;;;;;;;4.38;2.00;;;;;;;23.43;48.07;101849.25;5092743;28;20024;-66
2022/07/23 05:42:42;;;;;;;3.38;1.83;;;;;;;23.43;47.74;101851.06;5091605;28;20161;-66
2022/07/23 05:45:08;;;;;;;3.95;1.92;;;;;;;23.43;48.14;101851.06;5092449;28;20048;-66
2022/07/23 05:47:44;;;;;;;8.65;4.90;;;;;;;23.27;46.92;101846.25;5092168;28;20043;-65
2022/07/23 05:50:13;;;;;;;8.30;5.32;;;;;;;22.89;47.99;101855.72;5091822;28;20128;-67
2022/07/23 05:52:39;;;;;;;8.45;5.13;;;;;;;22.49;49.15;101857.28;5092094;28;20027;-67
2022/07/23 05:55:06;;;;;;;6.35;4.70;;;;;;;22.13;50.81;101861.16;5092640;28;20030;-65
2022/07/23 05:57:31;;;;;;;8.70;5.47;;;;;;;21.85;51.31;101868.75;5091265;28;20375;-65
2022/07/23 05:59:57;;;;;;;7.40;5.15;;;;;;;21.59;51.67;101866.38;5092252;28;20024;-65
2022/07/23 06:02:22;;;;;;;6.95;4.60;;;;;;;21.40;51.96;101868.78;5092416;28;20099;-66
2022/07/23 06:04:47;;;;;;;7.65;5.07;;;;;;;21.23;52.36;101865.66;5091177;28;20028;-65
2022/07/23 06:07:13;;;;;;;5.80;4.68;;;;;;;21.11;53.09;101869.25;5092539;28;20475;-65
2022/07/23 06:09:41;;;;;;;5.63;4.18;;;;;;;21.02;53.74;101876.13;5091569;28;20111;-65
2022/07/23 06:12:06;;;;;;;7.60;4.93;;;;;;;20.94;53.21;101883.81;5092314;28;20020;-65
2022/07/23 06:14:32;;;;;;;6.50;4.43;;;;;;;20.87;53.72;101890.53;5091791;28;20093;-64
2022/07/23 06:16:57;;;;;;;6.70;4.50;;;;;;;20.79;53.91;101886.69;5091498;28;20070;-64
2022/07/23 06:19:22;;;;;;;8.02;4.30;;;;;;;20.71;53.89;101880.28;5092131;28;20052;-63
2022/07/23 06:21:48;;;;;;;8.27;5.07;;;;;;;20.62;54.53;101879.16;5092085;28;20030;-64
2022/07/23 06:24:13;;;;;;;8.85;4.35;;;;;;;20.55;53.95;101881.41;5091398;28;20268;-65
2022/07/23 06:26:38;;;;;;;8.40;4.47;;;;;;;20.49;54.24;101873.94;5091763;28;20028;-65
2022/07/23 06:29:07;;;;;;;6.63;4.22;;;;;;;20.43;54.91;101874.41;5092038;28;20024;-71
2022/07/23 06:31:32;;;;;;;7.28;4.35;;;;;;;20.41;54.74;101876.28;5090922;28;20348;-67
2022/07/23 06:33:58;;;;;;;6.45;4.32;;;;;;;20.40;55.08;101880.75;5092483;28;20028;-67
2022/07/23 06:36:23;;;;;;;8.10;3.97;;;;;;;20.41;54.78;101892.19;5096034;28;20027;-68
2022/07/23 06:38:49;;;;;;;7.88;4.25;;;;;;;20.40;54.54;101883.41;5094934;28;20479;-68
2022/07/23 06:41:14;;;;;;;6.72;4.00;;;;;;;20.41;54.44;101885.09;5095727;28;20047;-68
2022/07/23 06:43:39;;;;;;;5.50;3.93;;;;;;;20.43;54.57;101893.75;5095514;28;20387;-68
2022/07/23 06:46:05;;;;;;;7.23;4.40;;;;;;;20.44;54.30;101894.59;5094888;28;20355;-66
2022/07/23 06:48:30;;;;;;;6.75;3.70;;;;;;;20.46;54.06;101892.69;5095146;28;20314;-66
2022/07/23 06:50:55;;;;;;;6.53;3.75;;;;;;;20.41;54.24;101893.03;5095712;28;20036;-66
2022/07/23 06:53:21;;;;;;;7.15;4.38;;;;;;;20.38;53.98;101890.63;5094926;28;20144;-67
2022/07/23 06:55:46;;;;;;;7.25;4.47;;;;;;;20.31;54.64;101892.03;5095212;28;20020;-66
2022/07/23 06:58:11;;;;;;;6.03;4.07;;;;;;;20.27;54.92;101887.94;5095518;28;20060;-67
2022/07/23 07:00:37;;;;;;;7.38;4.50;;;;;;;20.25;55.25;101888.03;5094197;28;20016;-69
2022/07/23 07:03:02;;;;;;;8.88;4.13;;;;;;;20.24;55.16;101881.06;5095269;28;20149;-67
2022/07/23 07:05:27;;;;;;;6.77;3.60;;;;;;;20.23;54.57;101887.28;5095394;28;20028;-68
2022/07/23 07:07:57;;;;;;;8.63;3.97;;;;;;;20.26;54.81;101887.06;5094461;28;20295;-68
2022/07/23 07:10:22;;;;;;;6.47;4.35;;;;;;;20.29;55.06;101888.66;5095320;28;20039;-69
2022/07/23 07:12:48;;;;;;;7.82;4.32;;;;;;;20.31;54.98;101886.72;5094857;28;20366;-68
2022/07/23 07:15:13;;;;;;;5.95;3.90;;;;;;;20.31;54.88;101884.06;5094281;28;20602;-68
2022/07/23 07:17:39;;;;;;;7.03;3.65;;;;;;;20.34;55.16;101886.50;5094590;28;20029;-68
2022/07/23 07:20:05;;;;;;;14.98;4.78;;;;;;;20.37;54.01;101882.78;5094482;28;20364;-68
2022/07/23 07:22:30;;;;;;;14.05;3.75;;;;;;;20.41;53.71;101889.53;5094848;28;20028;-69
2022/07/23 07:24:55;;;;;;;5.77;3.77;;;;;;;20.42;53.77;101889.41;5094994;28;20056;-66
2022/07/23 07:27:21;;;;;;;34.57;7.60;;;;;;;20.44;53.54;101891.94;5094397;28;20261;-69
2022/07/23 07:29:46;;;;;;;19.08;4.95;;;;;;;20.45;53.64;101898.94;5094556;28;20295;-66
2022/07/23 07:32:11;;;;;;;5.93;3.70;;;;;;;20.47;54.07;101899.66;5094636;28;20031;-65
2022/07/23 07:34:36;;;;;;;6.03;2.83;;;;;;;20.55;53.54;101899.94;5093947;28;20835;-65
2022/07/23 07:37:02;;;;;;;4.78;2.10;;;;;;;20.74;53.80;101902.06;5094653;28;20074;-67
2022/07/23 07:39:27;;;;;;;6.93;2.33;;;;;;;20.90;53.46;101900.91;5094840;28;20016;-71
2022/07/23 07:41:53;;;;;;;6.80;2.10;;;;;;;21.09;53.11;101903.00;5093741;28;20111;-64
2022/07/23 07:44:18;;;;;;;5.50;1.92;;;;;;;21.27;53.28;101895.41;5094574;28;20403;-71
2022/07/23 07:46:44;;;;;;;7.05;2.05;;;;;;;21.45;52.78;101896.63;5094099;28;20020;-65
2022/07/23 07:49:09;;;;;;;7.25;2.15;;;;;;;21.61;52.22;101893.63;5094084;28;20024;-66
2022/07/23 07:51:34;;;;;;;5.72;1.80;;;;;;;21.73;52.18;101900.59;5094385;28;20099;-66
2022/07/23 07:54:00;;;;;;;7.03;1.80;;;;;;;21.84;51.54;101891.78;5094499;28;20491;-66
2022/07/23 07:56:26;;;;;;;7.70;3.35;;;;;;;21.88;50.27;101901.16;5093642;28;20481;-64
2022/07/23 07:58:51;;;;;;;7.05;3.78;;;;;;;21.82;49.90;101899.00;5094079;28;20016;-63
2022/07/23 08:01:16;;;;;;;8.67;4.63;;;;;;;21.74;50.50;101901.44;5094458;28;20495;-65
2022/07/23 08:03:42;;;;;;;6.45;3.40;;;;;;;21.74;50.77;101899.63;5093466;28;20290;-66
2022/07/23 08:06:07;;;;;;;4.63;2.53;;;;;;;21.85;51.17;101900.59;5094321;28;20038;-65
2022/07/23 08:08:35;;;;;;;6.75;2.45;;;;;;;21.93;50.75;101896.31;5094031;28;20020;-66
2022/07/23 08:11:00;;;;;;;5.60;2.30;;;;;;;22.04;50.59;101907.91;5093456;28;20030;-66
2022/07/23 08:13:26;;;;;;;5.85;1.95;;;;;;;22.12;50.10;101902.81;5093915;28;20127;-64
2022/07/23 08:15:53;;;;;;;4.50;2.20;;;;;;;22.18;50.13;101901.47;5093671;28;20032;-65
2022/07/23 08:18:18;;;;;;;5.63;3.15;;;;;;;22.15;48.24;101904.38;5093163;28;20264;-63
2022/07/23 08:20:44;;;;;;;7.15;3.38;;;;;;;22.13;47.54;101907.16;5093828;28;20110;-64
2022/07/23 08:23:09;;;;;;;6.25;2.95;;;;;;;22.04;47.17;101902.59;5093699;28;20032;-64
2022/07/23 08:25:37;;;;;;;5.65;2.50;;;;;;;21.93;47.48;101909.59;5092724;28;20031;-65
2022/07/23 08:28:06;;;;;;;7.15;2.83;;;;;;;21.83;46.65;101911.31;5093571;28;20487;-64
2022/07/23 08:30:35;;;;;;;5.28;2.78;;;;;;;21.77;47.80;101924.25;5092405;28;20028;-65
2022/07/23 08:33:07;;;;;;;5.25;2.78;;;;;;;21.72;48.25;101921.94;5093883;28;20032;-65
2022/07/23 08:35:36;;;;;;;5.60;2.67;;;;;;;21.68;47.66;101920.50;5093650;28;20035;-64
2022/07/23 08:38:04;;;;;;;8.30;3.30;;;;;;;21.65;48.82;101921.59;5092754;28;20453;-64
2022/07/23 08:40:31;;;;;;;4.72;2.50;;;;;;;21.66;49.25;101925.91;5093474;28;20107;-63
2022/07/23 08:42:57;;;;;;;5.93;2.83;;;;;;;21.66;49.10;101925.91;5093644;28;20047;-64
2022/07/23 08:45:25;;;;;;;4.60;3.13;;;;;;;21.64;48.81;101927.88;5092988;28;20447;-64
2022/07/23 08:48:00;;;;;;;5.18;2.75;;;;;;;21.64;49.70;101930.53;5093455;28;20030;-64
2022/07/23 08:50:26;;;;;;;8.18;3.30;;;;;;;21.65;50.11;101926.91;5093804;28;20102;-65
2022/07/23 08:52:53;;;;;;;10.18;3.28;;;;;;;21.67;50.65;101926.78;5092055;28;20127;-64
2022/07/23 08:55:20;;;;;;;5.38;2.60;;;;;;;21.71;50.52;101931.72;5093228;28;20027;-64
2022/07/23 08:57:48;;;;;;;7.75;3.20;;;;;;;21.74;49.07;101933.28;5092090;28;20456;-62
2022/07/23 09:00:17;;;;;;;9.27;2.95;;;;;;;21.76;50.71;101935.81;5092567;28;20025;-65
2022/07/23 09:02:50;;;;;;;5.05;2.40;;;;;;;21.78;50.25;101931.22;5092978;28;20043;-65
2022/07/23 09:05:19;;;;;;;6.28;3.00;;;;;;;21.81;49.37;101933.63;5093107;28;20442;-64
2022/07/23 09:08:07;;;;;;;7.15;3.20;;;;;;;21.80;48.27;101924.00;5092039;28;20480;-64
2022/07/23 09:10:46;;;;;;;5.75;2.80;;;;;;;21.81;49.96;101925.66;5093008;28;20028;-64
2022/07/23 09:13:22;;;;;;;7.88;3.00;;;;;;;21.83;50.05;101921.09;5091945;28;20395;-64
2022/07/23 09:15:49;;;;;;;5.90;2.75;;;;;;;21.82;48.95;101909.63;5092721;28;20031;-65
2022/07/23 09:18:20;;;;;;;5.60;2.33;;;;;;;21.87;49.72;101911.91;5092882;28;20047;-66
2022/07/23 09:20:45;;;;;;;4.47;2.30;;;;;;;21.93;50.12;101912.25;5091987;28;20027;-64
2022/07/23 09:23:10;;;;;;;4.45;2.15;;;;;;;21.97;49.28;101910.22;5092909;28;20376;-61
2022/07/23 09:25:36;;;;;;;6.68;2.38;;;;;;;22.02;49.84;101900.06;5092630;28;20027;-63
2022/07/23 09:28:02;;;;;;;3.77;2.03;;;;;;;22.06;50.41;101903.28;5092139;28;20345;-64
2022/07/23 09:30:32;;;;;;;4.30;2.10;;;;;;;22.10;51.35;101910.88;5092904;28;20059;-64
2022/07/23 09:33:07;;;;;;;4.65;2.35;;;;;;;22.16;50.02;101917.53;5092503;28;20031;-64
2022/07/23 09:35:48;;;;;;;4.28;2.40;;;;;;;22.20;49.78;101918.94;5091887;28;20375;-65
2022/07/23 09:38:14;;;;;;;3.95;2.25;;;;;;;22.26;49.89;101920.25;5092843;28;20024;-64
2022/07/23 09:40:40;;;;;;;5.10;2.50;;;;;;;22.29;48.68;101927.97;5091716;28;20025;-65
2022/07/23 09:43:05;;;;;;;5.53;2.10;;;;;;;22.32;49.37;101926.91;5092701;28;20024;-65
2022/07/23 09:45:33;;;;;;;3.85;2.00;;;;;;;22.34;49.59;101924.97;5092243;28;20020;-65
2022/07/23 09:48:12;;;;;;;4.63;2.47;;;;;;;22.39;49.51;101923.63;5092142;28;20032;-62
2022/07/23 09:50:39;;;;;;;5.07;3.00;;;;;;;22.38;48.50;101919.28;5092453;28;20056;-64
2022/07/23 09:53:04;;;;;;;4.75;2.22;;;;;;;22.44;48.41;101926.72;5092669;28;20379;-63
2022/07/23 09:55:38;;;;;;;4.65;1.85;;;;;;;22.48;48.48;101930.00;5091575;28;20028;-68
2022/07/23 09:58:09;;;;;;;;;;;;;;;22.50;48.03;101928.03;5093018;28;20032;-66
2022/07/23 10:00:38;;;;;;;4.72;1.90;;;;;;;22.52;47.80;101922.59;5092480;28;20283;-66
2022/07/23 10:03:05;;;;;;;4.10;1.75;;;;;;;22.53;46.63;101921.63;5091849;28;20031;-65
2022/07/23 10:05:31;;;;;;;2.92;1.40;;;;;;;22.58;47.19;101920.28;5092257;28;20031;-67
2022/07/23 10:07:59;;;;;;;2.90;1.35;;;;;;;22.66;47.91;101929.44;5092963;28;20016;-67
2022/07/23 10:10:30;;;;;;;2.63;1.48;;;;;;;22.72;48.17;101924.44;5095519;28;20027;-66
2022/07/23 10:13:21;;;;;;;4.45;1.95;;;;;;;22.76;47.81;101931.16;5096149;28;20040;-67
2022/07/23 10:15:46;;;;;;;5.40;2.30;;;;;;;22.75;46.95;101926.84;5095475;28;20028;-66
2022/07/23 10:18:12;;;;;;;3.95;2.13;;;;;;;22.74;47.92;101917.16;5096285;28;20022;-67
2022/07/23 10:20:38;;;;;;;3.95;1.63;;;;;;;22.83;47.70;101924.38;5095882;28;20490;-67
2022/07/23 10:23:26;;;;;;;3.20;1.65;;;;;;;22.89;48.31;101925.69;5095243;28;20109;-67
2022/07/23 10:26:04;;;;;;;3.40;1.55;;;;;;;22.95;47.82;101916.31;5096005;28;20469;-66
2022/07/23 10:28:41;;;;;;;3.53;1.70;;;;;;;23.03;47.06;101921.81;5095814;28;20028;-66
2022/07/23 10:31:20;;;;;;;3.13;1.65;;;;;;;23.06;46.51;101924.22;5095202;28;20028;-68
2022/07/23 10:34:08;;;;;;;3.30;1.50;;;;;;;23.09;47.01;101924.00;5095745;28;20185;-67
2022/07/23 10:36:46;;;;;;;3.33;1.23;;;;;;;23.09;47.50;101925.81;5095707;28;20027;-64
2022/07/23 10:39:19;;;;;;;2.55;1.23;;;;;;;23.07;47.94;101925.91;5095164;28;20032;-66
2022/07/23 10:41:45;;;;;;;4.80;1.25;;;;;;;23.11;47.76;101926.50;5095569;28;20021;-69
2022/07/23 10:44:17;;;;;;;2.70;1.38;;;;;;;23.09;47.86;101925.81;5095185;28;20042;-68
2022/07/23 10:49:33;;;;;;;5.28;1.50;;;;;;;23.08;48.12;101914.34;5095612;28;20024;-69
2022/07/23 10:52:13;;;;;;;5.15;1.30;;;;;;;23.16;48.02;101925.16;5094687;28;20069;-68
2022/07/23 10:54:50;;;;;;;2.50;1.17;;;;;;;23.18;47.94;101917.88;5095485;28;20028;-68
2022/07/23 10:57:21;;;;;;;2.95;1.20;;;;;;;23.22;48.24;101915.78;5095676;28;20074;-72
2022/07/23 11:00:14;;;;;;;5.53;1.40;;;;;;;23.21;48.14;101913.25;5094405;28;20114;-68
2022/07/23 11:02:41;;;;;;;4.05;1.45;;;;;;;23.21;48.48;101916.78;5095190;28;20024;-70
2022/07/23 11:05:10;;;;;;;2.60;1.20;;;;;;;23.22;48.24;101921.13;5094801;28;20039;-67
2022/07/23 11:07:37;;;;;;;2.65;1.15;;;;;;;23.23;48.43;101925.47;5094313;28;20044;-66
2022/07/23 11:10:03;;;;;;;2.80;1.30;;;;;;;23.27;47.97;101918.88;5095411;28;20020;-66
2022/07/23 11:12:28;;;;;;;3.05;1.40;;;;;;;23.32;48.18;101915.84;5094449;28;20035;-67
2022/07/23 11:15:06;;;;;;;6.17;1.40;;;;;;;23.38;47.84;101917.97;5094961;28;20491;-65
2022/07/23 11:17:34;;;;;;;3.55;1.42;;;;;;;23.45;47.98;101916.47;5094561;28;20292;-66
2022/07/23 11:20:12;;;;;;;3.47;1.50;;;;;;;23.50;47.44;101906.25;5093722;28;20024;-67
2022/07/23 11:22:38;;;;;;;3.92;1.20;;;;;;;23.58;47.65;101912.75;5094995;28;20111;-67
2022/07/23 11:25:04;;;;;;;2.70;1.23;;;;;;;23.64;47.63;101905.06;5095051;28;20046;-67
2022/07/23 11:27:45;;;;;;;2.60;1.15;;;;;;;23.72;47.38;101901.72;5093807;28;20023;-66